D/T METAR WX W/DIR W/SPE G/SPE TEMP DEWP
20/06/19 16:20 EGKB 201520Z 22009KT 9999 VCSH NSC 16/12 Q1014 VCSH SW (220°) 10.4mph 16°C 12°C
20/06/19 15:50 EGKB 201450Z 22008KT 190V250 9999 VCSH NSC 16/11 Q1014 VCSH SW (220°) 9.2mph 16°C 11°C
20/06/19 15:20 EGKB 201420Z 23006KT 200V260 9999 VCSH FEW048 15/11 Q1014 VCSH SW (230°) 6.9mph 15°C 11°C
20/06/19 14:50 EGKB 201350Z 24007KT 9999 VCSH SCT035 14/11 Q1014 VCSH WSW (240°) 8.1mph 14°C 11°C
20/06/19 14:20 EGKB 201320Z 24008KT 210V280 9999 SHRA SCT035 16/10 Q1014 SHRA WSW (240°) 9.2mph 16°C 10°C
20/06/19 13:50 EGKB 201250Z 24009KT 200V310 9999 SCT030 16/09 Q1013 WSW (240°) 10.4mph 16°C 9°C
20/06/19 13:20 EGKB 201220Z 24010KT 190V260 9999 SCT030 17/10 Q1013 WSW (240°) 11.5mph 17°C 10°C
20/06/19 12:50 EGKB 201150Z 25006KT 210V300 9999 SCT030 16/10 Q1013 WSW (250°) 6.9mph 16°C 10°C
20/06/19 12:20 EGKB 201120Z 25008KT 210V300 9999 SCT030 16/09 Q1013 WSW (250°) 9.2mph 16°C 9°C
20/06/19 11:50 EGKB 201050Z 24011KT 210V270 9999 SCT030 17/09 Q1013 WSW (240°) 12.7mph 17°C 9°C
20/06/19 11:20 EGKB 201020Z 25009KT 200V290 9999 SCT030 16/11 Q1013 WSW (250°) 10.4mph 16°C 11°C
20/06/19 10:50 EGKB 200950Z 25009KT 210V300 9999 SCT025 16/10 Q1013 WSW (250°) 10.4mph 16°C 10°C
20/06/19 10:20 EGKB 200920Z 25009KT 220V290 9999 SCT025 16/10 Q1012 WSW (250°) 10.4mph 16°C 10°C
20/06/19 09:50 EGKB 200850Z 27009KT 210V320 9999 SCT020 15/10 Q1012 W (270°) 10.4mph 15°C 10°C
20/06/19 09:20 EGKB 200820Z 26010KT 230V290 9999 SCT018 15/11 Q1012 W (260°) 11.5mph 15°C 11°C
20/06/19 08:50 EGKB 200750Z 26008KT 230V300 9999 SCT014 14/11 Q1012 W (260°) 9.2mph 14°C 11°C
20/06/19 08:20 EGKB 200720Z 28009KT 240V320 9999 FEW012 13/11 Q1012 W (280°) 10.4mph 13°C 11°C
20/06/19 07:50 EGKB 200650Z 27009KT 240V300 9999 FEW010 13/11 Q1012 W (270°) 10.4mph 13°C 11°C
20/06/19 07:20 EGKB 200620Z 27007KT 210V300 9999 FEW045 13/11 Q1011 W (270°) 8.1mph 13°C 11°C
20/06/19 06:50 EGKB 200550Z 27007KT 230V300 9999 FEW040 12/11 Q1011 W (270°) 8.1mph 12°C 11°C
20/06/19 06:20 EGKB 200520Z 26005KT 230V340 9999 FEW030 12/11 Q1011 W (260°) 5.8mph 12°C 11°C
19/06/19 22:20 EGKB 192120Z 22006KT 9999 SCT020 15/15 Q1009 SW (220°) 6.9mph 15°C 15°C
19/06/19 21:50 EGKB 192050Z 20005KT 7000 SCT035 SCT025 15/15 Q1009 SSW (200°) 5.8mph 15°C 15°C
19/06/19 21:20 EGKB 192020Z 22005KT 2000 -RA BR FEW010 SCT025 15/15 Q1009 -RA BR SW (220°) 5.8mph 15°C 15°C
19/06/19 20:50 EGKB 191950Z 21006KT 4000 -RA BR FEW020 SCT040 15/15 Q1009 -RA BR SSW (210°) 6.9mph 15°C 15°C
19/06/19 20:20 EGKB 191920Z 21007KT 9999 -RA FEW015 SCT045 16/15 Q1009 -RA SSW (210°) 8.1mph 16°C 15°C
19/06/19 19:50 EGKB 191850Z 20005KT 9999 VCSH FEW048TCU 16/14 Q1008 VCSH SSW (200°) 5.8mph 16°C 14°C
19/06/19 19:20 EGKB 191820Z 22004KT 9999 VCSH SCT040TCU 16/14 Q1008 VCSH SW (220°) 4.6mph 16°C 14°C
19/06/19 18:50 EGKB 191750Z 24004KT 9999 VCSH SCT035 16/15 Q1008 VCSH WSW (240°) 4.6mph 16°C 15°C
19/06/19 18:20 EGKB 191720Z 25006KT 220V300 9999 VCSH FEW040 17/14 Q1008 VCSH WSW (250°) 6.9mph 17°C 14°C
19/06/19 17:50 EGKB 191650Z 26005KT 220V300 9999 SCT035 17/14 Q1008 W (260°) 5.8mph 17°C 14°C
19/06/19 17:20 EGKB 191620Z 28008KT 240V320 9999 SCT035 18/13 Q1008 W (280°) 9.2mph 18°C 13°C
19/06/19 16:50 EGKB 191550Z 28006KT 240V320 9999 SCT025 18/14 Q1008 W (280°) 6.9mph 18°C 14°C
19/06/19 15:50 EGKB 191450Z 24005KT 200V280 9999 VCSH FEW030 18/15 Q1008 VCSH WSW (240°) 5.8mph 18°C 15°C
19/06/19 15:20 EGKB 191420Z 24005KT 200V280 9999 -RA SCT030 18/15 Q1008 -RA WSW (240°) 5.8mph 18°C 15°C
19/06/19 14:50 EGKB 191350Z 27005KT 210V320 9999 SCT020 SCT030 18/15 Q1008 W (270°) 5.8mph 18°C 15°C
19/06/19 14:20 EGKB 191320Z 27004KT 220V310 9999 BKN020 18/14 Q1008 W (270°) 4.6mph 18°C 14°C
19/06/19 13:50 EGKB 191250Z 28005KT 250V310 9999 BKN016 18/15 Q1008 W (280°) 5.8mph 18°C 15°C
19/06/19 13:20 EGKB 191220Z 30004KT 250V340 9999 BKN015 17/14 Q1008 WNW (300°) 4.6mph 17°C 14°C
19/06/19 12:20 EGKB 191120Z 30006KT 270V330 9999 BKN015 17/14 Q1008 WNW (300°) 6.9mph 17°C 14°C
19/06/19 11:50 EGKB 191050Z 31005KT 270V350 9000 BKN012 16/14 Q1008 NW (310°) 5.8mph 16°C 14°C
19/06/19 10:50 EGKB 190950Z 33006KT 280V350 4000 BR SCT007 16/14 Q1007 BR NNW (330°) 6.9mph 16°C 14°C
19/06/19 09:50 EGKB 190850Z 30004KT 260V340 3000 BR BKN004 15/14 Q1008 BR WNW (300°) 4.6mph 15°C 14°C
19/06/19 09:20 EGKB 190820Z 30003KT 2500 BR BKN004 15/14 Q1007 BR WNW (300°) 3.5mph 15°C 14°C
19/06/19 08:50 EGKB 190750Z VRB03KT 2500 BR BKN004 15/14 Q1007 BR N (0°) 3.5mph 15°C 14°C
19/06/19 07:50 EGKB 190650Z 15005KT 1800 -RA BR BKN002 14/14 Q1008 -RA BR SSE (150°) 5.8mph 14°C 14°C
19/06/19 07:20 EGKB 190620Z VRB03KT 1800 -RA BR BKN002 14/13 Q1007 -RA BR N (0°) 3.5mph 14°C 13°C
19/06/19 06:20 EGKB 190520Z 30004KT 0500 R21/0650 FG VV/// 15/11 Q1007 FG WNW (300°) 4.6mph 15°C 11°C